createdAt,value
2023-05-12T00:00:13.115Z,22.10
2023-05-12T00:02:40.237Z,22.10
2023-05-12T00:05:07.548Z,22.10
2023-05-12T00:07:34.702Z,22.20
2023-05-12T00:10:01.550Z,22.20
2023-05-12T00:12:29.227Z,22.10
2023-05-12T00:14:56.171Z,22.10
2023-05-12T00:17:23.112Z,22.10
2023-05-12T00:19:50.183Z,22.10
2023-05-12T00:22:17.170Z,22.10
2023-05-12T00:24:44.132Z,22.10
2023-05-12T00:27:10.930Z,22.10
2023-05-12T00:29:37.830Z,22.10
2023-05-12T00:32:04.981Z,22.10
2023-05-12T00:34:31.853Z,22.10
2023-05-12T00:36:59.065Z,22.10
2023-05-12T00:39:25.912Z,22.10
2023-05-12T00:41:59.818Z,22.10
2023-05-12T00:44:26.756Z,22.10
2023-05-12T00:46:54.463Z,22.10
2023-05-12T00:49:22.093Z,22.10
2023-05-12T00:51:49.352Z,22.10
2023-05-12T00:54:17.184Z,22.10
2023-05-12T00:56:44.261Z,22.10
2023-05-12T00:59:11.084Z,22.10
2023-05-12T01:01:38.407Z,22.10
2023-05-12T01:04:05.735Z,22.10
2023-05-12T01:06:48.459Z,22.00
2023-05-12T01:09:15.868Z,22.00
2023-05-12T01:11:42.684Z,22.00
2023-05-12T01:14:09.549Z,22.00
2023-05-12T01:16:45.863Z,22.00
2023-05-12T01:19:41.346Z,21.90
2023-05-12T01:22:09.241Z,21.90
2023-05-12T01:24:47.452Z,21.90
2023-05-12T01:27:16.450Z,21.90
2023-05-12T01:29:46.298Z,21.90
2023-05-12T01:32:14.648Z,21.90
2023-05-12T01:34:42.559Z,21.90
2023-05-12T01:37:10.522Z,21.90
2023-05-12T01:39:38.360Z,21.90
2023-05-12T01:42:05.960Z,21.90
2023-05-12T01:44:33.121Z,21.90
2023-05-12T01:47:01.858Z,21.90
2023-05-12T01:49:29.135Z,21.90
2023-05-12T01:51:56.011Z,21.90
2023-05-12T01:54:22.837Z,21.90
2023-05-12T01:56:49.709Z,21.90
2023-05-12T01:59:16.710Z,21.90
2023-05-12T02:01:43.647Z,21.90
2023-05-12T02:04:10.713Z,21.90
2023-05-12T02:06:37.754Z,21.90
2023-05-12T02:09:04.864Z,21.90
2023-05-12T02:11:31.763Z,21.90
2023-05-12T02:13:58.677Z,21.90
2023-05-12T02:16:27.554Z,21.90
2023-05-12T02:18:54.441Z,21.90
2023-05-12T02:21:21.383Z,21.80
2023-05-12T02:23:48.406Z,21.80
2023-05-12T02:26:15.288Z,21.80
2023-05-12T02:28:42.272Z,21.80
2023-05-12T02:31:09.091Z,21.80
2023-05-12T02:33:36.802Z,21.80
2023-05-12T02:36:04.416Z,21.80
2023-05-12T02:38:31.214Z,21.80
2023-05-12T02:40:58.255Z,21.80
2023-05-12T02:43:25.074Z,21.90
2023-05-12T02:45:52.006Z,21.90
2023-05-12T02:48:18.925Z,22.00
2023-05-12T02:50:45.852Z,22.10
2023-05-12T02:53:12.751Z,22.10
2023-05-12T02:55:39.613Z,22.20
2023-05-12T02:58:07.062Z,22.30
2023-05-12T03:00:33.886Z,22.40
2023-05-12T03:03:00.832Z,22.50
2023-05-12T03:05:27.931Z,22.60
2023-05-12T03:07:54.860Z,22.60
2023-05-12T03:10:22.404Z,22.70
2023-05-12T03:12:49.373Z,22.70
2023-05-12T03:15:16.618Z,22.70
2023-05-12T03:17:43.446Z,22.70
2023-05-12T03:20:10.696Z,22.70
2023-05-12T03:22:37.650Z,22.60
2023-05-12T03:25:05.332Z,22.60
2023-05-12T03:27:33.031Z,22.50
2023-05-12T03:30:05.044Z,22.40
2023-05-12T03:32:32.379Z,22.40
2023-05-12T03:34:59.188Z,22.40
2023-05-12T03:37:26.145Z,22.40
2023-05-12T03:39:56.054Z,22.40
2023-05-12T03:42:24.096Z,22.40
2023-05-12T03:44:51.819Z,22.40
2023-05-12T03:47:18.793Z,22.40
2023-05-12T03:49:45.765Z,22.50
2023-05-12T03:52:13.180Z,22.50
2023-05-12T03:54:40.103Z,22.50
2023-05-12T03:57:07.468Z,22.50
2023-05-12T03:59:34.369Z,22.50
2023-05-12T04:02:01.745Z,22.40
2023-05-12T04:04:28.967Z,22.40
2023-05-12T04:06:56.330Z,22.40
2023-05-12T04:09:23.188Z,22.40
2023-05-12T04:11:50.026Z,22.40
2023-05-12T04:14:16.867Z,22.40
2023-05-12T04:16:43.749Z,22.40
2023-05-12T04:19:10.734Z,22.40
2023-05-12T04:21:37.602Z,22.40
2023-05-12T04:24:04.806Z,22.40
2023-05-12T04:26:31.621Z,22.40
2023-05-12T04:28:58.480Z,22.40
2023-05-12T04:31:25.427Z,22.40
2023-05-12T04:33:52.262Z,22.40
2023-05-12T04:36:19.073Z,22.30
2023-05-12T04:38:45.943Z,22.30
2023-05-12T04:41:13.178Z,22.30
2023-05-12T04:46:09.717Z,22.20
2023-05-12T04:48:41.844Z,22.20
2023-05-12T04:51:09.129Z,22.10
2023-05-12T04:53:36.318Z,22.10
2023-05-12T04:56:03.611Z,22.00
2023-05-12T04:58:30.487Z,22.00
2023-05-12T05:00:57.392Z,22.00
2023-05-12T05:03:24.521Z,22.00
2023-05-12T05:05:51.495Z,22.00
2023-05-12T05:08:18.537Z,22.00
2023-05-12T05:10:45.444Z,22.10
2023-05-12T05:13:12.443Z,22.10
2023-05-12T05:15:39.333Z,22.20
2023-05-12T05:18:06.235Z,22.20
2023-05-12T05:20:34.397Z,22.30
2023-05-12T05:23:01.425Z,22.30
2023-05-12T05:25:28.694Z,22.30
2023-05-12T05:27:55.934Z,22.30
2023-05-12T05:30:22.745Z,22.30
2023-05-12T05:32:49.754Z,22.30
2023-05-12T05:35:16.903Z,22.30
2023-05-12T05:37:43.844Z,22.20
2023-05-12T05:40:11.003Z,22.20
2023-05-12T05:42:37.879Z,22.10
2023-05-12T05:45:05.322Z,22.10
2023-05-12T05:47:34.384Z,22.00
2023-05-12T05:50:01.230Z,22.00
2023-05-12T05:52:28.163Z,22.00
2023-05-12T05:54:54.979Z,22.00
2023-05-12T05:57:22.446Z,22.10
2023-05-12T05:59:49.561Z,22.10
2023-05-12T06:02:16.606Z,22.10
2023-05-12T06:04:43.455Z,22.20
2023-05-12T06:07:10.268Z,22.20
2023-05-12T06:09:37.138Z,22.20
2023-05-12T06:12:04.153Z,22.20
2023-05-12T06:14:30.968Z,22.30
2023-05-12T06:16:57.899Z,22.30
2023-05-12T06:19:24.791Z,22.30
2023-05-12T06:21:52.690Z,22.20
2023-05-12T06:24:19.600Z,22.20
2023-05-12T06:26:46.417Z,22.20
2023-05-12T06:29:13.372Z,22.10
2023-05-12T06:31:40.207Z,22.10
2023-05-12T06:34:07.174Z,22.10
2023-05-12T06:36:34.577Z,22.10
2023-05-12T06:39:01.429Z,22.10
2023-05-12T06:41:28.403Z,22.10
2023-05-12T06:43:55.237Z,22.10
2023-05-12T06:46:22.129Z,22.10
2023-05-12T06:48:48.980Z,22.10
2023-05-12T06:51:15.831Z,22.10
2023-05-12T06:53:42.747Z,22.10
2023-05-12T06:56:11.378Z,22.10
2023-05-12T06:58:38.302Z,22.10
2023-05-12T07:01:05.239Z,22.00
2023-05-12T07:03:33.566Z,22.00
2023-05-12T07:06:00.970Z,21.90
2023-05-12T07:08:27.941Z,21.90
2023-05-12T07:10:55.138Z,21.90
2023-05-12T07:13:22.478Z,21.90
2023-05-12T07:15:49.329Z,21.90
2023-05-12T07:18:16.183Z,21.90
2023-05-12T07:20:43.919Z,22.00
2023-05-12T07:23:10.829Z,22.00
2023-05-12T07:25:37.968Z,22.10
2023-05-12T07:28:05.100Z,22.10
2023-05-12T07:30:32.015Z,22.20
2023-05-12T07:32:58.959Z,22.20
2023-05-12T07:35:25.810Z,22.20
2023-05-12T07:37:53.396Z,22.20
2023-05-12T07:40:20.304Z,22.10
2023-05-12T07:42:47.176Z,22.10
2023-05-12T07:45:13.996Z,22.10
2023-05-12T07:47:41.170Z,22.00
2023-05-12T07:50:08.368Z,22.00
2023-05-12T07:52:35.247Z,22.00
2023-05-12T07:55:02.157Z,21.90
2023-05-12T07:57:29.384Z,22.00
2023-05-12T07:59:56.331Z,22.00
2023-05-12T08:02:23.265Z,22.00
2023-05-12T08:04:50.858Z,22.10
2023-05-12T08:07:17.876Z,22.10
2023-05-12T08:09:44.750Z,22.10
2023-05-12T08:12:11.783Z,22.10
2023-05-12T08:14:39.168Z,22.20
2023-05-12T08:17:06.976Z,22.20
2023-05-12T08:19:33.829Z,22.20
2023-05-12T08:22:00.778Z,22.20
2023-05-12T08:24:27.621Z,22.20
2023-05-12T08:26:54.589Z,22.20
2023-05-12T08:29:21.468Z,22.20
2023-05-12T08:31:48.390Z,22.10
2023-05-12T08:34:15.435Z,22.00
2023-05-12T08:36:42.415Z,22.00
2023-05-12T08:39:12.674Z,22.00
2023-05-12T08:41:48.423Z,22.00
2023-05-12T08:44:16.129Z,22.10
2023-05-12T08:46:43.570Z,22.10
2023-05-12T08:49:12.484Z,22.20
2023-05-12T08:51:42.219Z,22.20
2023-05-12T08:54:10.585Z,22.30
2023-05-12T08:59:10.404Z,22.40
2023-05-12T09:01:37.892Z,22.40
2023-05-12T09:04:05.267Z,22.50
2023-05-12T09:06:32.907Z,22.60
2023-05-12T09:08:59.996Z,22.60
2023-05-12T09:11:27.038Z,22.70
2023-05-12T09:14:06.428Z,22.70
2023-05-12T09:16:46.592Z,22.80
2023-05-12T09:19:13.556Z,22.80
2023-05-12T09:21:41.928Z,22.90
2023-05-12T09:24:09.163Z,23.00
2023-05-12T09:26:51.249Z,23.00
2023-05-12T09:29:30.645Z,23.10
2023-05-12T09:32:03.551Z,23.20
2023-05-12T09:34:38.162Z,23.20
2023-05-12T09:37:06.978Z,23.30
2023-05-12T09:39:34.669Z,23.40
2023-05-12T09:42:01.625Z,23.40
2023-05-12T09:44:31.566Z,23.50
2023-05-12T09:47:07.384Z,23.50
2023-05-12T09:49:34.275Z,23.50
2023-05-12T09:52:01.273Z,23.50
2023-05-12T09:54:32.601Z,23.50
2023-05-12T09:57:01.500Z,23.50
2023-05-12T09:59:35.045Z,23.50
2023-05-12T10:02:05.456Z,23.50
2023-05-12T10:04:55.362Z,23.50
2023-05-12T10:07:25.980Z,23.40
2023-05-12T10:09:55.479Z,23.40
2023-05-12T10:12:22.293Z,23.40
2023-05-12T10:14:50.031Z,23.40
2023-05-12T10:17:19.401Z,23.30
2023-05-12T10:19:47.669Z,23.20
2023-05-12T10:22:17.218Z,23.20
2023-05-12T10:24:46.045Z,23.20
2023-05-12T10:27:14.723Z,23.20
2023-05-12T10:29:42.428Z,23.20
2023-05-12T10:32:09.502Z,23.20
2023-05-12T10:34:38.010Z,23.30
2023-05-12T10:37:10.039Z,23.30
2023-05-12T10:39:38.414Z,23.30
2023-05-12T10:42:09.684Z,23.40
2023-05-12T10:44:47.597Z,23.40
2023-05-12T10:47:15.015Z,23.40
2023-05-12T10:49:42.408Z,23.40
2023-05-12T10:52:12.732Z,23.40
2023-05-12T10:54:44.696Z,23.40
2023-05-12T10:57:21.576Z,23.40
2023-05-12T10:59:51.230Z,23.30
2023-05-12T11:02:23.536Z,23.30
2023-05-12T11:05:01.275Z,23.30
2023-05-12T11:07:31.356Z,23.20
2023-05-12T11:10:01.997Z,23.20
2023-05-12T11:12:37.786Z,23.10
2023-05-12T11:15:06.413Z,23.10
2023-05-12T11:17:33.468Z,23.00
2023-05-12T11:20:03.081Z,23.00
2023-05-12T11:22:31.036Z,23.00
2023-05-12T11:24:57.957Z,22.90
2023-05-12T11:27:24.980Z,22.90
2023-05-12T11:29:59.886Z,22.90
2023-05-12T11:32:27.780Z,22.90
2023-05-12T11:34:54.854Z,22.80
2023-05-12T11:37:22.726Z,22.80
2023-05-12T11:39:50.146Z,22.80
2023-05-12T11:42:19.722Z,22.80
2023-05-12T11:44:48.944Z,22.80
2023-05-12T11:47:17.136Z,22.80
2023-05-12T11:49:49.816Z,22.80
2023-05-12T11:52:17.844Z,22.90
2023-05-12T11:55:06.085Z,22.90
2023-05-12T11:57:38.250Z,23.00
2023-05-12T12:00:09.007Z,23.00
2023-05-12T12:02:43.304Z,23.10
2023-05-12T12:05:18.313Z,23.10
2023-05-12T12:07:45.459Z,23.10
2023-05-12T12:10:17.374Z,23.10
2023-05-12T12:12:45.434Z,23.20
2023-05-12T12:15:13.405Z,23.20
2023-05-12T12:17:41.102Z,23.20
2023-05-12T12:20:09.262Z,23.20
2023-05-12T12:22:36.319Z,23.20
2023-05-12T12:25:04.020Z,23.20
2023-05-12T12:27:30.996Z,23.20
2023-05-12T12:29:57.878Z,23.30
2023-05-12T12:32:25.021Z,23.30
2023-05-12T12:34:53.509Z,23.30
2023-05-12T12:37:20.407Z,23.30
2023-05-12T12:39:47.986Z,23.30
2023-05-12T12:42:15.629Z,23.20
2023-05-12T12:44:42.850Z,23.20
2023-05-12T12:47:09.791Z,23.20
2023-05-12T12:49:36.626Z,23.20
2023-05-12T12:52:03.700Z,23.10
2023-05-12T12:54:30.512Z,23.10
2023-05-12T12:56:57.724Z,23.10
2023-05-12T12:59:24.627Z,23.10
2023-05-12T13:01:51.512Z,23.00
2023-05-12T13:04:22.402Z,23.00
2023-05-12T13:06:49.544Z,22.90
2023-05-12T13:09:19.499Z,22.90
2023-05-12T13:11:54.331Z,22.80
2023-05-12T13:14:30.317Z,22.80
2023-05-12T13:17:00.329Z,22.80
2023-05-12T13:19:30.627Z,22.70
2023-05-12T13:21:57.586Z,22.70
2023-05-12T13:24:24.503Z,22.60
2023-05-12T13:26:51.662Z,22.60
2023-05-12T13:29:19.258Z,22.50
2023-05-12T13:31:46.673Z,22.50
2023-05-12T13:34:14.546Z,22.40
2023-05-12T13:36:41.514Z,22.50
2023-05-12T13:39:10.116Z,22.40
2023-05-12T13:41:37.276Z,22.40
2023-05-12T13:44:04.560Z,22.40
2023-05-12T13:46:31.510Z,22.50
2023-05-12T13:48:58.443Z,22.50
2023-05-12T13:51:25.978Z,22.60
2023-05-12T13:53:53.150Z,22.70
2023-05-12T13:56:21.557Z,22.70
2023-05-12T13:58:48.464Z,22.80
2023-05-12T14:01:15.975Z,22.90
2023-05-12T14:03:42.925Z,22.90
2023-05-12T14:06:09.816Z,23.00
2023-05-12T14:08:37.268Z,23.10
2023-05-12T14:11:04.439Z,23.10
2023-05-12T14:13:31.333Z,23.10
2023-05-12T14:15:58.529Z,23.10
2023-05-12T14:18:25.894Z,23.10
2023-05-12T14:20:52.963Z,23.20
2023-05-12T14:23:19.859Z,23.20
2023-05-12T14:25:47.325Z,23.20
2023-05-12T14:28:14.829Z,23.20
2023-05-12T14:30:43.348Z,23.20
2023-05-12T14:33:10.667Z,23.30
2023-05-12T14:35:37.572Z,23.20
2023-05-12T14:38:04.501Z,23.30
2023-05-12T14:40:31.357Z,23.30
2023-05-12T14:42:58.521Z,23.30
2023-05-12T14:45:26.493Z,23.30
2023-05-12T14:47:53.574Z,23.30
2023-05-12T14:50:20.691Z,23.30
2023-05-12T14:52:47.729Z,23.30
2023-05-12T14:55:15.061Z,23.20
2023-05-12T14:57:42.265Z,23.20
2023-05-12T15:00:11.278Z,23.20
2023-05-12T15:02:39.922Z,23.10
2023-05-12T15:05:08.703Z,23.10
2023-05-12T15:07:36.373Z,23.10
2023-05-12T15:10:03.979Z,23.10
2023-05-12T15:12:31.661Z,23.00
2023-05-12T15:15:01.273Z,23.00
2023-05-12T15:17:28.545Z,23.00
2023-05-12T15:19:55.827Z,23.00
2023-05-12T15:22:22.769Z,22.90
2023-05-12T15:24:49.587Z,22.90
2023-05-12T15:27:16.430Z,22.90
2023-05-12T15:29:43.303Z,22.80
2023-05-12T15:32:10.455Z,22.80
2023-05-12T15:34:37.440Z,22.80
2023-05-12T15:37:04.581Z,22.70
2023-05-12T15:39:31.643Z,22.70
2023-05-12T15:41:59.099Z,22.60
2023-05-12T15:44:25.981Z,22.60
2023-05-12T15:46:53.010Z,22.60
2023-05-12T15:49:20.022Z,22.60
2023-05-12T15:51:46.871Z,22.70
2023-05-12T15:54:13.857Z,22.70
2023-05-12T15:56:40.852Z,22.80
2023-05-12T15:59:07.985Z,22.80
2023-05-12T16:01:34.884Z,22.80
2023-05-12T16:04:01.821Z,22.90
2023-05-12T16:06:29.289Z,22.90
2023-05-12T16:08:56.444Z,22.90
2023-05-12T16:11:23.425Z,23.00
2023-05-12T16:13:52.694Z,23.00
2023-05-12T16:16:20.050Z,23.10
2023-05-12T16:18:47.109Z,23.20
2023-05-12T16:21:14.071Z,23.20
2023-05-12T16:23:41.135Z,23.20
2023-05-12T16:26:07.949Z,23.20
2023-05-12T16:28:34.788Z,23.30
2023-05-12T16:31:04.724Z,23.30
2023-05-12T16:33:31.677Z,23.30
2023-05-12T16:35:58.523Z,23.30
2023-05-12T16:38:26.089Z,23.30
2023-05-12T16:40:52.897Z,23.30
2023-05-12T16:43:19.721Z,23.30
2023-05-12T16:45:46.665Z,23.20
2023-05-12T16:48:13.708Z,23.20
2023-05-12T16:50:41.599Z,23.20
2023-05-12T16:53:08.413Z,23.10
2023-05-12T16:55:35.354Z,23.10
2023-05-12T16:58:02.188Z,23.10
2023-05-12T17:00:30.126Z,23.00
2023-05-12T17:02:57.265Z,22.90
2023-05-12T17:05:24.735Z,22.90
2023-05-12T17:07:52.374Z,22.90
2023-05-12T17:10:19.226Z,22.80
2023-05-12T17:12:46.703Z,22.80
2023-05-12T17:15:13.638Z,22.70
2023-05-12T17:17:40.740Z,22.70
2023-05-12T17:20:09.172Z,22.70
2023-05-12T17:22:41.280Z,22.60
2023-05-12T17:25:09.212Z,22.60
2023-05-12T17:27:36.299Z,22.60
2023-05-12T17:30:04.694Z,22.50
2023-05-12T17:32:32.941Z,22.60
2023-05-12T17:34:59.828Z,22.60
2023-05-12T17:37:26.834Z,22.60
2023-05-12T17:39:53.731Z,22.60
2023-05-12T17:42:20.635Z,22.60
2023-05-12T17:44:47.568Z,22.70
2023-05-12T17:47:15.075Z,22.80
2023-05-12T17:49:42.393Z,22.90
2023-05-12T17:52:09.383Z,22.90
2023-05-12T17:54:36.425Z,23.00
2023-05-12T17:57:03.308Z,23.10
2023-05-12T17:59:30.166Z,23.20
2023-05-12T18:01:57.272Z,23.20
2023-05-12T18:04:24.310Z,23.20
2023-05-12T18:06:51.694Z,23.30
2023-05-12T18:09:19.993Z,23.30
2023-05-12T18:11:47.544Z,23.30
2023-05-12T18:14:14.392Z,23.30
2023-05-12T18:16:41.521Z,23.40
2023-05-12T18:19:09.069Z,23.40
2023-05-12T18:21:36.394Z,23.40
2023-05-12T18:24:03.298Z,23.40
2023-05-12T18:26:31.451Z,23.40
2023-05-12T18:28:59.026Z,23.40
2023-05-12T18:31:26.798Z,23.40
2023-05-12T18:33:53.678Z,23.40
2023-05-12T18:36:20.622Z,23.40
2023-05-12T18:38:47.537Z,23.40
2023-05-12T18:41:14.489Z,23.40
2023-05-12T18:43:43.982Z,23.40
2023-05-12T18:46:11.677Z,23.30
2023-05-12T18:48:39.120Z,23.20
2023-05-12T18:51:06.468Z,23.20
2023-05-12T18:53:33.534Z,23.10
2023-05-12T18:56:00.415Z,23.10
2023-05-12T18:58:27.242Z,23.10
2023-05-12T19:00:54.509Z,23.00
2023-05-12T19:03:21.865Z,23.00
2023-05-12T19:05:49.393Z,23.00
2023-05-12T19:08:17.651Z,22.90
2023-05-12T19:10:44.598Z,22.90
2023-05-12T19:13:11.429Z,22.90
2023-05-12T19:15:38.242Z,22.90
2023-05-12T19:18:05.106Z,22.90
2023-05-12T19:20:32.443Z,22.90
2023-05-12T19:22:59.821Z,22.90
2023-05-12T19:25:26.684Z,22.90
2023-05-12T19:27:53.531Z,22.90
2023-05-12T19:30:20.578Z,22.90
2023-05-12T19:32:47.667Z,22.90
2023-05-12T19:35:14.947Z,22.90
2023-05-12T19:37:41.987Z,22.90
2023-05-12T19:40:09.188Z,22.90
2023-05-12T19:42:37.846Z,22.80
2023-05-12T19:45:05.712Z,22.80
2023-05-12T19:47:33.407Z,22.70
2023-05-12T19:50:00.600Z,22.60
2023-05-12T19:52:30.593Z,22.50
2023-05-12T19:54:57.897Z,22.50
2023-05-12T19:57:24.809Z,22.40
2023-05-12T19:59:51.655Z,22.30
2023-05-12T20:02:18.678Z,22.30
2023-05-12T20:04:45.730Z,22.20
2023-05-12T20:07:13.837Z,22.20
2023-05-12T20:09:40.657Z,22.20
2023-05-12T20:12:08.095Z,22.10
2023-05-12T20:14:36.222Z,22.10
2023-05-12T20:17:05.798Z,22.10
2023-05-12T20:19:33.637Z,22.10
2023-05-12T20:22:00.740Z,22.10
2023-05-12T20:24:28.149Z,22.10
2023-05-12T20:26:55.731Z,22.10
2023-05-12T20:29:22.742Z,22.10
2023-05-12T20:31:51.148Z,22.10
2023-05-12T20:34:18.927Z,22.10
2023-05-12T20:36:46.403Z,22.10
2023-05-12T20:39:14.004Z,22.10
2023-05-12T20:41:42.369Z,22.10
2023-05-12T20:44:09.754Z,22.10
2023-05-12T20:46:38.498Z,22.10
2023-05-12T20:49:06.116Z,22.10
2023-05-12T20:51:33.516Z,22.10
2023-05-12T20:54:00.579Z,22.10
2023-05-12T20:56:27.477Z,22.10
2023-05-12T20:58:54.388Z,22.10
2023-05-12T21:01:21.421Z,22.10
2023-05-12T21:03:48.429Z,22.10
2023-05-12T21:06:15.470Z,22.10
2023-05-12T21:08:42.427Z,22.00
2023-05-12T21:11:16.850Z,22.00
2023-05-12T21:13:45.490Z,22.00
2023-05-12T21:16:12.548Z,22.00
2023-05-12T21:18:39.801Z,22.00
2023-05-12T21:21:07.556Z,22.00
2023-05-12T21:23:36.272Z,22.00
2023-05-12T21:26:05.179Z,22.00
2023-05-12T21:28:32.116Z,21.90
2023-05-12T21:30:58.986Z,21.90
2023-05-12T21:33:25.918Z,21.90
2023-05-12T21:35:52.735Z,21.90
2023-05-12T21:38:20.773Z,21.90
2023-05-12T21:40:52.508Z,21.90
2023-05-12T21:43:19.314Z,21.90
2023-05-12T21:45:46.343Z,21.90
2023-05-12T21:48:13.224Z,21.90
2023-05-12T21:50:40.188Z,21.80
2023-05-12T21:53:07.250Z,21.80
2023-05-12T21:55:34.112Z,21.80
2023-05-12T21:58:00.927Z,21.70
2023-05-12T22:00:28.003Z,21.70
2023-05-12T22:02:54.881Z,21.70
2023-05-12T22:05:21.986Z,21.70
2023-05-12T22:07:48.776Z,21.70
2023-05-12T22:10:15.657Z,21.60
2023-05-12T22:12:42.495Z,21.60
2023-05-12T22:15:09.745Z,21.60
2023-05-12T22:17:36.616Z,21.60
2023-05-12T22:20:04.180Z,21.60
2023-05-12T22:22:31.227Z,21.60
2023-05-12T22:24:58.509Z,21.50
2023-05-12T22:27:25.549Z,21.50
2023-05-12T22:29:52.489Z,21.50
2023-05-12T22:32:19.393Z,21.50
2023-05-12T22:34:46.258Z,21.50
2023-05-12T22:37:13.194Z,21.50
2023-05-12T22:39:40.051Z,21.60
2023-05-12T22:42:07.030Z,21.60
2023-05-12T22:44:33.880Z,21.60
2023-05-12T22:47:01.136Z,21.60
2023-05-12T22:49:27.951Z,21.60
2023-05-12T22:51:54.768Z,21.50
2023-05-12T22:54:21.619Z,21.50
2023-05-12T22:56:48.459Z,21.50
2023-05-12T22:59:15.824Z,21.50
2023-05-12T23:01:42.715Z,21.50
2023-05-12T23:04:09.579Z,21.50
2023-05-12T23:06:36.538Z,21.40
2023-05-12T23:09:03.548Z,21.40
2023-05-12T23:11:30.429Z,21.40
2023-05-12T23:13:57.466Z,21.40
2023-05-12T23:16:24.359Z,21.40
2023-05-12T23:18:51.308Z,21.40
2023-05-12T23:21:18.261Z,21.40
2023-05-12T23:23:45.126Z,21.40
2023-05-12T23:26:12.022Z,21.40
2023-05-12T23:28:38.898Z,21.40
2023-05-12T23:31:05.777Z,21.30
2023-05-12T23:33:32.764Z,21.30
2023-05-12T23:35:59.618Z,21.30
2023-05-12T23:38:26.462Z,21.30
2023-05-12T23:40:53.316Z,21.30
2023-05-12T23:43:20.369Z,21.30
2023-05-12T23:45:47.324Z,21.30
2023-05-12T23:48:14.216Z,21.30
2023-05-12T23:50:41.232Z,21.40
2023-05-12T23:53:08.095Z,21.40
2023-05-12T23:55:36.565Z,21.40
2023-05-12T23:58:03.534Z,21.40
